Terminal Aerodrome Forecast
Issued by NWS

Home | Current Version | Previous Version | Text Only | Print | Product List | Glossary On
Versions: 1 2 3 4 5 6 7 8 9 10 11 12 13 14 15 16 17 18 19 20 21 22 23 24 25 26 27 28 29
000
FTUS41 KBOX 251744
TAFFMH
TAF
KFMH 251744Z 2518/2618 23013G20KT P6SM BKN130
     FM252300 20010G17KT P6SM VCTS BKN060CB
     FM260300 22008KT 5SM BR VCTS OVC010CB
     FM260400 22007KT 3SM BR VCTS BKN030CB
     FM260700 23007KT 3SM BR BKN008
     FM261200 27007KT P6SM FEW008
     FM261300 27007KT P6SM FEW200=

USA.gov is the U.S. government's official web portal to all federal, state and local government web resources and services.